Time;durP1;ratioP1;P1;durP2;ratioP2;P2;SDS_P1;SDS_P2;PMS_P1;PMS_P2;Temp;Humidity;BMP_temperature;BMP_pressure;BME280_temperature;BME280_humidity;BME280_pressure;Samples;Min_cycle;Max_cycle;Signal;HPM_P1;HPM_P2
2023/05/06 00:01:06;;;;;;;42.65;24.27;;;11.20;99.90;;;11.82;100.00;100889.78;5090693;28;20044;-79
2023/05/06 00:03:33;;;;;;;40.17;23.58;;;11.20;99.90;;;11.79;100.00;100866.44;5072535;28;20032;-79
2023/05/06 00:05:58;;;;;;;43.22;24.23;;;11.20;99.90;;;11.86;100.00;100872.72;5090841;28;20028;-79
2023/05/06 00:08:25;;;;;;;38.55;23.23;;;11.20;99.90;;;11.80;100.00;100862.66;5091313;28;20042;-79
2023/05/06 00:10:50;;;;;;;40.08;23.45;;;11.30;99.90;;;11.94;100.00;100866.16;5090145;28;20448;-79
2023/05/06 00:13:16;;;;;;;38.15;22.25;;;11.30;99.90;;;11.98;100.00;100870.09;5073314;28;20043;-79
2023/05/06 00:15:42;;;;;;;47.03;25.10;;;11.30;99.90;;;12.01;100.00;100875.16;5091154;28;20036;-79
2023/05/06 00:18:07;;;;;;;56.20;26.98;;;11.30;99.90;;;11.98;100.00;100861.09;5090020;28;20036;-79
2023/05/06 00:20:33;;;;;;;70.43;30.55;;;11.40;99.90;;;12.08;100.00;100865.03;5066799;28;20032;-79
2023/05/06 00:22:59;;;;;;;78.18;33.75;;;11.50;99.90;;;12.19;100.00;100870.84;5090628;28;20523;-79
2023/05/06 00:25:25;;;;;;;95.85;37.63;;;11.60;99.90;;;12.26;100.00;100870.81;5072571;28;20158;-79
2023/05/06 00:27:52;;;;;;;110.18;39.47;;;11.60;99.90;;;12.32;100.00;100869.91;5072300;28;20597;-79
2023/05/06 00:30:18;;;;;;;99.38;39.88;;;11.70;99.90;;;12.34;100.00;100863.16;5073054;28;20036;-79
2023/05/06 00:32:43;;;;;;;95.55;38.20;;;11.70;99.90;;;12.37;100.00;100865.44;5053022;28;20128;-79
2023/05/06 00:35:11;;;;;;;94.95;39.33;;;11.80;99.90;;;12.41;100.00;100863.06;5072121;28;20483;-79
2023/05/06 00:37:36;;;;;;;93.55;39.10;;;11.90;99.90;;;12.41;100.00;100851.31;5089968;28;20642;-79
2023/05/06 00:40:03;;;;;;;90.68;37.85;;;11.90;99.90;;;12.47;100.00;100850.41;5090191;28;20052;-78
2023/05/06 00:42:28;;;;;;;99.57;39.15;;;11.90;99.90;;;12.49;100.00;100843.66;5090111;28;20047;-78
2023/05/06 00:44:54;;;;;;;85.68;36.83;;;12.00;99.90;;;12.54;100.00;100855.81;5089546;28;20031;-79
2023/05/06 00:47:22;;;;;;;85.25;36.35;;;12.00;99.90;;;12.42;100.00;100837.38;5060000;28;20093;-78
2023/05/06 00:49:50;;;;;;;84.40;37.72;;;12.00;99.90;;;12.52;100.00;100856.88;5091071;28;20086;-78
2023/05/06 00:52:18;;;;;;;84.05;36.67;;;12.00;99.90;;;12.51;100.00;100848.88;5090797;28;20064;-78
2023/05/06 00:54:45;;;;;;;76.07;36.38;;;12.10;99.90;;;12.58;100.00;100859.78;5090607;28;20436;-78
2023/05/06 00:57:10;;;;;;;77.88;34.47;;;12.00;99.90;;;12.48;100.00;100868.50;5084321;28;20031;-78
2023/05/06 00:59:37;;;;;;;72.70;33.72;;;12.00;99.90;;;12.50;100.00;100860.91;5090176;28;20081;-78
2023/05/06 01:02:03;;;;;;;68.38;32.47;;;12.00;99.90;;;12.43;100.00;100857.41;5061694;28;20040;-78
2023/05/06 01:04:29;;;;;;;71.10;32.05;;;12.00;99.90;;;12.32;100.00;100867.16;5090267;28;20105;-77
2023/05/06 01:07:30;;;;;;;68.60;32.63;;;12.00;99.90;;;12.24;100.00;100846.38;5090962;28;20506;-78
2023/05/06 01:10:18;;;;;;;69.65;32.22;;;12.00;99.90;;;12.33;100.00;100872.44;5085516;28;20044;-78
2023/05/06 01:13:28;;;;;;;63.97;30.70;;;12.00;99.90;;;12.25;100.00;100871.84;5069656;28;20051;-79
2023/05/06 01:15:56;;;;;;;64.50;30.35;;;12.00;99.90;;;12.34;100.00;100854.94;5052080;28;20138;-79
2023/05/06 01:18:25;;;;;;;;;;;12.00;99.90;;;12.35;100.00;100859.34;5074321;28;20036;-78
2023/05/06 01:20:54;;;;;;;65.20;29.58;;;12.00;99.90;;;12.29;100.00;100862.97;5073406;28;19916;-78
2023/05/06 01:23:20;;;;;;;58.10;28.92;;;12.00;99.90;;;12.33;100.00;100863.38;5091991;28;20066;-78
2023/05/06 01:25:46;;;;;;;59.92;28.80;;;12.00;99.90;;;12.40;100.00;100866.06;5071430;28;20051;-79
2023/05/06 01:28:12;;;;;;;54.38;27.42;;;12.00;99.90;;;12.32;100.00;100867.97;5089885;28;20044;-78
2023/05/06 01:31:02;;;;;;;59.17;29.88;;;12.00;99.90;;;12.32;100.00;100870.72;5071953;28;20033;-79
2023/05/06 01:33:55;;;;;;;55.47;27.63;;;12.00;99.90;;;12.32;100.00;100870.72;5094044;28;20039;-78
2023/05/06 01:36:40;;;;;;;53.67;27.15;;;11.90;99.90;;;12.26;100.00;100877.09;5090641;28;20032;-77
2023/05/06 01:39:18;;;;;;;49.83;26.48;;;11.90;99.90;;;12.22;100.00;100873.97;5090759;28;20095;-78
2023/05/06 01:41:48;;;;;;;52.13;27.45;;;11.90;99.90;;;12.06;100.00;100871.78;5093535;28;20092;-78
2023/05/06 01:44:16;;;;;;;48.10;26.08;;;11.90;99.90;;;12.18;100.00;100852.75;5075639;28;20020;-78
2023/05/06 01:46:44;;;;;;;50.50;27.00;;;11.80;99.90;;;12.31;100.00;100876.44;5093973;28;20036;-79
2023/05/06 01:49:13;;;;;;;55.53;26.98;;;11.80;99.90;;;12.16;100.00;100869.38;5069068;28;20024;-78
2023/05/06 01:51:39;;;;;;;56.33;27.50;;;11.80;99.90;;;12.15;100.00;100878.63;5075037;28;20044;-78
2023/05/06 01:54:06;;;;;;;53.65;26.38;;;11.70;99.90;;;12.16;100.00;100869.38;5070996;28;20020;-78
2023/05/06 01:56:32;;;;;;;48.88;26.77;;;11.70;99.90;;;12.06;100.00;100879.97;5093846;28;20097;-78
2023/05/06 01:58:58;;;;;;;48.10;26.48;;;11.70;99.90;;;12.00;100.00;100856.22;5092773;28;20036;-78
2023/05/06 02:01:24;;;;;;;47.25;25.10;;;11.60;99.90;;;12.02;100.00;100885.03;5093315;28;20392;-78
2023/05/06 02:03:50;;;;;;;45.50;24.05;;;11.60;99.90;;;12.01;100.00;100888.84;5092681;28;20036;-78
2023/05/06 02:06:16;;;;;;;44.63;25.13;;;11.50;99.90;;;11.94;100.00;100883.41;5093652;28;20024;-79
2023/05/06 02:08:43;;;;;;;43.78;23.83;;;11.50;99.90;;;11.90;100.00;100873.94;5074398;28;20035;-78
2023/05/06 02:11:13;;;;;;;42.10;22.70;;;11.40;99.90;;;11.82;100.00;100882.41;5075767;28;20085;-79
2023/05/06 02:13:40;;;;;;;39.63;22.10;;;11.30;99.90;;;11.78;100.00;100881.19;5075013;28;20063;-78
2023/05/06 02:16:07;;;;;;;41.47;22.63;;;11.20;99.90;;;11.62;100.00;100882.53;5053024;28;20035;-78
2023/05/06 02:18:34;;;;;;;39.78;23.27;;;11.10;99.90;;;11.58;100.00;100882.13;5075349;28;20045;-78
2023/05/06 02:21:00;;;;;;;48.05;22.95;;;11.10;99.90;;;11.49;100.00;100877.97;5091546;28;20479;-78
2023/05/06 02:23:26;;;;;;;45.85;23.23;;;11.10;99.90;;;11.49;100.00;100878.78;5074045;28;20040;-78
2023/05/06 02:25:52;;;;;;;37.67;20.90;;;11.00;99.90;;;11.43;100.00;100873.38;5092375;28;20028;-78
2023/05/06 02:28:18;;;;;;;42.38;22.48;;;10.90;99.90;;;11.32;100.00;100878.44;5091818;28;20036;-79
2023/05/06 02:30:44;;;;;;;49.20;24.15;;;10.80;99.90;;;11.29;100.00;100883.53;5092527;28;20032;-78
2023/05/06 02:33:09;;;;;;;48.78;23.55;;;10.80;99.90;;;11.22;100.00;100867.16;5092237;28;20036;-78
2023/05/06 02:35:36;;;;;;;43.92;23.40;;;10.80;99.90;;;11.21;100.00;100876.41;5073568;28;20119;-78
2023/05/06 02:38:03;;;;;;;45.67;24.40;;;10.80;99.90;;;11.12;100.00;100884.00;5058250;28;20127;-78
2023/05/06 02:40:29;;;;;;;49.55;23.88;;;10.80;99.90;;;11.12;100.00;100878.53;5069279;28;20068;-79
2023/05/06 02:42:54;;;;;;;43.88;23.10;;;10.70;99.90;;;11.11;100.00;100874.13;5074119;28;20066;-79
2023/05/06 02:45:20;;;;;;;44.35;22.90;;;10.70;99.90;;;11.08;100.00;100872.66;5069175;28;20032;-78
2023/05/06 02:47:46;;;;;;;41.50;22.23;;;10.60;99.90;;;10.97;100.00;100870.59;5074707;28;20497;-79
2023/05/06 02:50:12;;;;;;;43.38;22.27;;;10.60;99.90;;;10.92;100.00;100862.22;5092499;28;20121;-79
2023/05/06 02:52:38;;;;;;;46.30;23.30;;;10.50;99.90;;;11.04;100.00;100867.84;5074880;28;20035;-78
2023/05/06 02:55:05;;;;;;;43.47;22.45;;;10.50;99.90;;;10.94;100.00;100860.94;5074420;28;20427;-79
2023/05/06 02:57:30;;;;;;;42.88;21.95;;;10.40;99.90;;;10.97;100.00;100870.59;5074849;28;20039;-78
2023/05/06 02:59:57;;;;;;;41.75;22.25;;;10.30;99.90;;;10.89;100.00;100879.03;5074558;28;20414;-78
2023/05/06 03:02:23;;;;;;;40.45;22.05;;;10.20;99.90;;;10.87;100.00;100875.63;5091919;28;20032;-78
2023/05/06 03:04:49;;;;;;;41.83;21.58;;;10.20;99.90;;;10.81;100.00;100884.69;5090883;28;20050;-78
2023/05/06 03:07:15;;;;;;;46.03;22.38;;;10.10;99.90;;;10.91;100.00;100883.19;5073960;28;20073;-78
2023/05/06 03:09:41;;;;;;;39.95;20.40;;;10.20;99.90;;;10.89;100.00;100885.31;5091980;28;20391;-78
2023/05/06 03:12:07;;;;;;;43.30;21.75;;;10.10;99.90;;;10.77;100.00;100882.38;5074944;28;20032;-79
2023/05/06 03:14:33;;;;;;;43.22;20.70;;;10.20;99.90;;;10.80;100.00;100886.59;5091891;28;20077;-78
2023/05/06 03:16:59;;;;;;;40.83;20.42;;;10.20;99.90;;;10.82;100.00;100889.09;5073391;28;20502;-78
2023/05/06 03:19:25;;;;;;;39.15;19.65;;;10.10;99.90;;;10.70;100.00;100894.34;5092121;28;20077;-78
2023/05/06 03:21:50;;;;;;;47.55;20.92;;;10.00;99.90;;;10.73;100.00;100892.06;5074793;28;20044;-80
2023/05/06 03:24:18;;;;;;;;;;;10.00;99.90;;;10.65;100.00;100895.81;5074112;28;20506;-78
2023/05/06 03:26:44;;;;;;;39.78;20.17;;;10.00;99.90;;;10.66;100.00;100885.78;5074697;28;19916;-79
2023/05/06 03:29:12;;;;;;;40.95;20.20;;;10.00;99.90;;;10.45;100.00;100876.75;5073249;28;20036;-79
2023/05/06 03:31:39;;;;;;;46.08;20.08;;;9.90;99.90;;;10.48;100.00;100886.41;5073941;28;21494;-79
2023/05/06 03:34:05;;;;;;;39.13;19.80;;;9.90;99.90;;;10.34;100.00;100871.88;5074060;28;20028;-79
2023/05/06 03:36:32;;;;;;;41.28;19.27;;;9.90;99.90;;;10.33;100.00;100856.56;5074282;28;20047;-79
2023/05/06 03:38:58;;;;;;;38.00;19.00;;;9.90;99.90;;;10.45;100.00;100881.34;5074551;28;20437;-79
2023/05/06 03:41:24;;;;;;;35.60;18.30;;;9.90;99.90;;;10.38;100.00;100875.88;5074173;28;20036;-79
2023/05/06 03:43:51;;;;;;;36.97;19.92;;;9.80;99.90;;;10.40;100.00;100872.94;5091907;28;20036;-79
2023/05/06 03:46:20;;;;;;;35.72;19.55;;;9.90;99.90;;;10.12;100.00;100861.19;5073391;28;20074;-79
2023/05/06 03:48:46;;;;;;;42.25;20.25;;;10.00;99.90;;;10.18;100.00;100845.88;5058871;28;20036;-79
2023/05/06 03:51:15;;;;;;;39.33;19.25;;;10.10;99.90;;;10.33;100.00;100848.38;5071207;28;20027;-79
2023/05/06 03:53:41;;;;;;;42.20;19.80;;;10.10;99.90;;;10.25;100.00;100845.88;5072727;28;20549;-79
2023/05/06 03:56:07;;;;;;;39.60;18.58;;;10.10;99.90;;;10.31;100.00;100839.56;5091894;28;20036;-80
2023/05/06 03:58:34;;;;;;;39.30;19.45;;;10.10;99.90;;;10.30;100.00;100848.81;5073347;28;20396;-79
2023/05/06 04:01:01;;;;;;;40.65;19.52;;;10.10;99.90;;;10.38;100.00;100850.50;5073958;28;20383;-79
2023/05/06 04:03:27;;;;;;;42.38;20.83;;;10.20;99.90;;;10.41;100.00;100841.91;5073550;28;20044;-79
2023/05/06 04:05:54;;;;;;;45.33;21.25;;;10.30;99.90;;;10.49;100.00;100842.53;5072731;28;20027;-79
2023/05/06 04:08:24;;;;;;;46.75;21.17;;;10.40;99.90;;;10.61;100.00;100839.19;5069811;28;20463;-78
2023/05/06 04:10:49;;;;;;;53.90;22.92;;;10.40;99.90;;;10.60;100.00;100832.88;5073007;28;20145;-79
2023/05/06 04:13:24;;;;;;;48.90;21.88;;;10.50;99.90;;;10.77;100.00;100844.19;5074041;28;20089;-79
2023/05/06 04:15:52;;;;;;;50.35;22.42;;;10.60;99.90;;;10.78;100.00;100840.41;5064227;28;20032;-79
2023/05/06 04:18:21;;;;;;;53.17;22.40;;;10.60;99.90;;;10.77;100.00;100840.63;5063266;28;20373;-78
2023/05/06 04:21:01;;;;;;;51.75;23.92;;;10.70;99.90;;;10.84;100.00;100849.63;5090550;28;20030;-78
2023/05/06 04:23:31;;;;;;;46.95;22.23;;;10.70;99.90;;;10.89;100.00;100857.19;5066894;28;20394;-78
2023/05/06 04:25:58;;;;;;;;;;;10.80;99.90;;;10.86;100.00;100841.22;5073369;28;20123;-78
2023/05/06 04:28:24;;;;;;;46.35;21.80;;;10.80;99.90;;;10.92;100.00;100856.75;5069456;28;19967;-79
2023/05/06 04:30:51;;;;;;;50.70;22.33;;;10.80;99.90;;;10.98;100.00;100866.81;5062043;28;20024;-79
2023/05/06 04:33:21;;;;;;;50.53;23.10;;;10.80;99.90;;;11.02;100.00;100867.22;5087426;28;20065;-78
2023/05/06 04:35:55;;;;;;;45.95;22.67;;;10.80;99.90;;;10.99;100.00;100865.75;5055783;28;20036;-79
2023/05/06 04:38:24;;;;;;;44.85;22.17;;;10.90;99.90;;;11.01;100.00;100874.56;5057070;28;20391;-78
2023/05/06 04:40:50;;;;;;;47.20;21.88;;;10.90;99.90;;;11.02;100.00;100873.50;5073262;28;20060;-79
2023/05/06 04:43:17;;;;;;;49.72;22.83;;;10.90;99.90;;;11.01;100.00;100873.75;5088687;28;20487;-78
2023/05/06 04:45:50;;;;;;;43.05;20.42;;;10.90;99.90;;;11.02;100.00;100873.50;5073366;28;20032;-78
2023/05/06 04:48:21;;;;;;;43.17;20.92;;;10.90;99.90;;;11.04;100.00;100865.94;5072092;28;20108;-79
2023/05/06 04:50:49;;;;;;;47.60;22.42;;;10.90;99.90;;;11.12;100.00;100878.53;5070774;28;20033;-79
2023/05/06 04:53:16;;;;;;;45.60;21.57;;;10.90;99.90;;;11.08;100.00;100883.56;5092134;28;20449;-80
2023/05/06 04:55:42;;;;;;;42.65;21.48;;;10.90;99.90;;;11.08;100.00;100878.09;5075178;28;20040;-79
2023/05/06 04:58:09;;;;;;;44.70;22.48;;;10.90;99.90;;;11.03;100.00;100880.66;5074503;28;20041;-78
2023/05/06 05:00:35;;;;;;;47.67;23.08;;;10.90;99.90;;;11.08;100.00;100882.75;5070054;28;20029;-78
2023/05/06 05:03:04;;;;;;;45.13;21.67;;;10.90;99.90;;;11.17;100.00;100891.53;5075292;28;20058;-78
2023/05/06 05:05:32;;;;;;;43.63;22.27;;;10.90;99.90;;;11.25;100.00;100902.22;5076361;28;20048;-79
2023/05/06 05:07:58;;;;;;;46.15;22.20;;;11.00;99.90;;;11.14;100.00;100898.25;5081266;28;20085;-79
2023/05/06 05:10:26;;;;;;;;;;;11.00;99.90;;;11.25;100.00;100904.09;5082043;28;20036;-79
2023/05/06 05:12:53;;;;;;;40.75;20.58;;;11.00;99.90;;;11.29;100.00;100908.09;5088601;28;19927;-78
2023/05/06 05:15:20;;;;;;;41.47;21.50;;;11.00;99.90;;;11.20;100.00;100907.50;5097424;28;20036;-79
2023/05/06 05:17:46;;;;;;;37.95;21.02;;;11.00;99.90;;;11.19;100.00;100916.75;5099679;28;20055;-78
2023/05/06 05:20:12;;;;;;;39.72;21.77;;;10.90;99.90;;;11.16;100.00;100909.81;5084012;28;20032;-77
2023/05/06 05:22:38;;;;;;;43.05;21.67;;;10.90;99.90;;;11.10;100.00;100902.47;5098402;28;20047;-76
2023/05/06 05:25:05;;;;;;;41.08;21.95;;;10.90;99.90;;;11.31;100.00;100917.75;5087067;28;20028;-76
2023/05/06 05:27:31;;;;;;;41.92;21.55;;;10.90;99.90;;;11.27;100.00;100912.91;5076163;28;20433;-77
2023/05/06 05:29:56;;;;;;;39.13;21.48;;;10.90;99.90;;;11.20;100.00;100915.69;5077097;28;20043;-76
2023/05/06 05:32:22;;;;;;;40.47;21.40;;;10.80;99.90;;;11.05;100.00;100902.28;5076631;28;20383;-76
2023/05/06 05:34:48;;;;;;;37.72;21.55;;;10.80;99.90;;;11.20;100.00;100923.88;5058568;28;20044;-77
2023/05/06 05:37:14;;;;;;;40.38;21.67;;;10.80;99.90;;;11.37;100.00;100929.72;5092486;28;20032;-76
2023/05/06 05:39:40;;;;;;;40.30;22.40;;;10.90;99.90;;;11.44;100.00;100929.69;5059742;28;20047;-78
2023/05/06 05:42:07;;;;;;;44.08;22.60;;;11.10;99.90;;;11.50;100.00;100947.94;5075900;28;20039;-79
2023/05/06 05:44:36;;;;;;;40.75;23.50;;;11.20;99.90;;;11.49;100.00;100951.72;5075394;28;20126;-77
2023/05/06 05:47:03;;;;;;;39.50;22.08;;;11.20;99.90;;;11.51;100.00;100955.09;5075831;28;20040;-77
2023/05/06 05:49:30;;;;;;;39.65;22.77;;;11.20;99.90;;;11.29;100.00;100944.44;5076183;28;20059;-78
2023/05/06 05:51:56;;;;;;;38.53;22.20;;;11.20;99.90;;;11.40;100.00;100956.59;5059896;28;20480;-81
2023/05/06 05:54:22;;;;;;;40.53;22.67;;;11.20;99.90;;;11.66;100.00;100974.78;5075486;28;20051;-80
2023/05/06 05:56:49;;;;;;;40.90;23.75;;;11.40;99.90;;;11.86;100.00;100982.06;5092374;28;20379;-79
2023/05/06 05:59:15;;;;;;;39.55;23.15;;;11.50;99.90;;;11.92;100.00;100983.91;5076156;28;20032;-76
2023/05/06 06:01:42;;;;;;;36.53;22.60;;;11.60;99.90;;;11.78;100.00;100990.50;5091634;28;20107;-76
2023/05/06 06:04:08;;;;;;;31.13;20.10;;;11.70;99.90;;;11.83;100.00;100982.50;5094257;28;20048;-78
2023/05/06 06:06:34;;;;;;;25.98;18.08;;;11.70;99.90;;;11.61;100.00;100963.66;5093995;28;20035;-79
2023/05/06 06:09:00;;;;;;;24.05;17.67;;;11.80;99.90;;;11.84;100.00;100986.09;5075252;28;20384;-78
2023/05/06 06:11:28;;;;;;;24.92;17.88;;;11.90;99.90;;;11.97;100.00;100980.53;5057809;28;20036;-79
2023/05/06 06:13:53;;;;;;;23.13;17.65;;;12.10;99.90;;;11.96;100.00;100981.59;5072270;28;20017;-79
2023/05/06 06:16:20;;;;;;;23.80;17.05;;;12.10;99.90;;;12.02;100.00;100988.13;5069098;28;20056;-82
2023/05/06 06:18:47;;;;;;;22.30;17.48;;;12.20;99.90;;;11.99;100.00;100985.81;5074168;28;20068;-81
2023/05/06 06:21:13;;;;;;;23.25;18.00;;;12.20;99.90;;;12.39;100.00;100998.44;5074162;28;20506;-80
2023/05/06 06:23:39;;;;;;;25.35;18.05;;;12.30;99.90;;;12.54;100.00;100998.13;5089105;28;20032;-84
2023/05/06 06:26:06;;;;;;;22.77;16.95;;;12.50;99.90;;;12.72;100.00;100992.69;5091349;28;20036;-85
2023/05/06 06:28:32;;;;;;;22.90;16.90;;;12.60;99.90;;;12.80;100.00;101008.88;5076053;28;20044;-81
2023/05/06 06:30:58;;;;;;;23.58;17.02;;;12.70;99.90;;;12.74;100.00;100992.50;5075401;28;20059;-84
2023/05/06 06:33:24;;;;;;;21.67;16.30;;;12.70;99.90;;;12.86;100.00;101001.66;5075324;28;20072;-83
2023/05/06 06:35:50;;;;;;;21.25;15.82;;;12.80;99.90;;;12.98;100.00;101003.69;5075474;28;20028;-82
2023/05/06 06:38:15;;;;;;;21.48;16.23;;;13.00;99.90;;;12.99;100.00;100991.66;5091181;28;20186;-82
2023/05/06 06:40:41;;;;;;;23.17;16.27;;;13.00;99.90;;;12.60;100.00;100997.22;5094121;28;20476;-84
2023/05/06 06:43:07;;;;;;;21.67;15.38;;;12.90;99.90;;;12.63;100.00;100988.56;5094357;28;20084;-82
2023/05/06 06:45:57;;;;;;;23.67;16.88;;;12.90;99.90;;;12.70;100.00;100999.47;5070813;28;20621;-83
2023/05/06 06:48:23;;;;;;;18.40;14.00;;;12.90;99.90;;;12.71;100.00;100977.34;5050222;28;20119;-85
2023/05/06 06:50:49;;;;;;;19.65;15.45;;;13.10;99.90;;;13.02;100.00;101000.28;5047685;28;20119;-81
2023/05/06 06:53:15;;;;;;;20.73;14.50;;;13.10;99.90;;;13.18;100.00;101006.22;5064194;28;20032;-85
2023/05/06 06:55:47;;;;;;;19.38;13.98;;;13.20;99.90;;;13.29;100.00;101012.88;5064893;28;20135;-83
2023/05/06 06:58:12;;;;;;;19.73;14.23;;;13.30;99.90;;;12.92;100.00;101016.34;5091656;28;20517;-82
2023/05/06 07:00:38;;;;;;;18.70;14.50;;;13.30;99.90;;;13.12;100.00;101015.34;5091692;28;20047;-82
2023/05/06 07:03:04;;;;;;;20.50;14.82;;;13.30;99.90;;;13.02;100.00;101010.38;5092242;28;20101;-80
2023/05/06 07:05:30;;;;;;;18.60;13.18;;;13.30;99.90;;;13.02;100.00;101011.22;5073697;28;20466;-82
2023/05/06 07:07:55;;;;;;;17.98;13.10;;;13.20;99.90;;;13.09;100.00;101005.66;5092344;28;20437;-84
2023/05/06 07:10:21;;;;;;;17.88;13.48;;;13.30;99.90;;;13.56;100.00;100996.16;5072967;28;20044;-83
2023/05/06 07:12:47;;;;;;;18.08;14.02;;;13.50;99.90;;;13.65;100.00;100987.41;5071197;28;20039;-84
2023/05/06 07:15:13;;;;;;;19.73;14.23;;;13.70;99.90;;;13.64;100.00;100991.22;5091954;28;20521;-80
2023/05/06 07:17:38;;;;;;;21.17;13.65;;;13.70;99.90;;;13.33;100.00;101005.84;5091228;28;20072;-79
2023/05/06 07:20:05;;;;;;;19.73;13.23;;;13.60;99.90;;;13.87;100.00;101000.66;5090121;28;20028;-81
2023/05/06 07:22:31;;;;;;;19.38;13.15;;;13.70;99.90;;;14.08;100.00;100991.09;5088821;28;20028;-80
2023/05/06 07:24:57;;;;;;;18.85;12.77;;;14.10;99.90;;;14.56;100.00;100999.47;5089597;28;20044;-82
2023/05/06 07:27:23;;;;;;;17.77;13.13;;;14.50;99.90;;;14.95;100.00;100988.94;5070631;28;20105;-80
2023/05/06 07:29:49;;;;;;;18.85;13.82;;;14.90;99.90;;;14.99;100.00;101004.97;5090669;28;20086;-81
2023/05/06 07:32:15;;;;;;;17.98;12.30;;;15.10;99.90;;;13.83;100.00;101002.19;5091287;28;20050;-79
2023/05/06 07:34:41;;;;;;;18.83;12.93;;;14.60;99.90;;;13.34;100.00;101007.53;5091615;28;20368;-79
2023/05/06 07:37:07;;;;;;;15.77;9.65;;;14.00;99.90;;;13.69;100.00;101019.84;5091060;28;20036;-80
2023/05/06 07:39:33;;;;;;;18.77;11.52;;;14.10;99.90;;;13.81;100.00;101012.56;5091482;28;20060;-79
2023/05/06 07:42:00;;;;;;;17.90;10.85;;;14.10;99.90;;;14.28;100.00;101003.69;5088837;28;20050;-76
2023/05/06 07:44:26;;;;;;;19.17;11.03;;;14.50;99.90;;;14.65;100.00;101011.78;5072901;28;20048;-77
2023/05/06 07:46:51;;;;;;;17.70;11.02;;;14.80;99.90;;;14.80;100.00;100994.06;5072989;28;20051;-79
2023/05/06 07:49:17;;;;;;;16.00;9.65;;;15.10;99.90;;;14.60;100.00;101002.59;5090498;28;20414;-80
2023/05/06 07:51:43;;;;;;;16.80;9.55;;;15.10;99.90;;;14.68;100.00;101005.81;5072887;28;20093;-78
2023/05/06 07:54:09;;;;;;;17.02;9.30;;;15.10;99.90;;;14.15;100.00;100991.00;5090273;28;20073;-79
2023/05/06 07:56:35;;;;;;;17.05;10.00;;;14.90;99.90;;;14.08;100.00;101012.22;5072231;28;20130;-78
2023/05/06 07:59:00;;;;;;;14.93;9.52;;;14.60;99.90;;;14.26;100.00;101013.22;5090302;28;20028;-78
2023/05/06 08:01:27;;;;;;;15.38;8.43;;;14.60;99.90;;;14.30;100.00;101006.19;5090936;28;20032;-79
2023/05/06 08:03:53;;;;;;;12.50;8.60;;;14.70;99.90;;;14.35;100.00;100992.63;5056161;28;20081;-78
2023/05/06 08:06:19;;;;;;;15.13;8.70;;;14.70;99.90;;;14.58;100.00;101001.97;5090536;28;20803;-79
2023/05/06 08:08:46;;;;;;;15.30;9.35;;;14.90;99.90;;;14.87;100.00;101004.94;5089015;28;20123;-79
2023/05/06 08:11:12;;;;;;;14.77;9.13;;;15.20;99.90;;;14.78;100.00;100994.28;5090444;28;20042;-81
2023/05/06 08:13:38;;;;;;;14.55;8.95;;;15.40;99.90;;;14.82;100.00;101003.72;5089131;28;20062;-83
2023/05/06 08:16:05;;;;;;;13.57;8.18;;;15.50;99.90;;;14.60;100.00;100991.63;5091865;28;20032;-83
2023/05/06 08:18:32;;;;;;;11.40;8.27;;;15.30;99.90;;;14.49;100.00;101017.97;5073749;28;20224;-82
2023/05/06 08:20:57;;;;;;;12.82;7.75;;;15.00;99.90;;;14.44;100.00;100998.59;5090399;28;20031;-82
2023/05/06 08:23:23;;;;;;;11.57;8.15;;;15.10;99.90;;;14.99;100.00;101019.53;5070648;28;20037;-82
2023/05/06 08:25:49;;;;;;;9.35;6.60;;;15.40;99.90;;;15.18;96.95;100972.72;5089921;28;20029;-84
2023/05/06 08:28:15;;;;;;;10.50;6.90;;;;;;;15.71;97.38;101014.81;5088274;28;20391;-84
2023/05/06 08:30:41;;;;;;;8.93;6.80;;;15.90;99.90;;;15.58;92.90;101002.16;5090667;28;20036;-84
2023/05/06 08:33:07;;;;;;;10.52;7.43;;;16.30;99.90;;;15.34;93.92;101004.13;5089310;28;20487;-84
2023/05/06 08:35:32;;;;;;;11.05;6.65;;;16.00;99.90;;;15.53;94.18;100999.31;5088857;28;20070;-83
2023/05/06 08:37:58;;;;;;;12.15;7.30;;;16.20;99.90;;;15.21;96.61;100997.78;5090792;28;20094;-81
2023/05/06 08:40:25;;;;;;;10.15;7.63;;;16.10;99.90;;;15.50;99.79;101022.63;5088580;28;20398;-80
2023/05/06 08:42:56;;;;;;;11.35;7.93;;;16.10;99.90;;;15.80;94.72;101015.28;5086991;28;20356;-78
2023/05/06 08:45:22;;;;;;;11.27;7.60;;;16.30;99.90;;;15.84;95.00;101013.72;5070753;28;20046;-79
2023/05/06 08:47:48;;;;;;;11.40;7.47;;;16.50;99.90;;;15.91;96.48;101008.97;5088101;28;20603;-79
2023/05/06 08:50:14;;;;;;;11.73;8.20;;;16.50;99.90;;;15.73;95.96;101014.59;5068489;28;20038;-78
2023/05/06 08:52:40;;;;;;;10.95;7.45;;;16.50;99.90;;;15.58;94.76;101017.84;5069862;28;20346;-79
2023/05/06 08:55:08;;;;;;;10.43;7.45;;;16.40;99.90;;;15.38;95.40;100997.91;5088777;28;20055;-79
2023/05/06 08:57:35;;;;;;;11.57;7.95;;;16.30;99.90;;;15.52;97.67;101019.63;5070822;28;20039;-78
2023/05/06 09:00:02;;;;;;;10.13;7.78;;;16.10;99.90;;;15.67;97.64;101021.88;5087310;28;20049;-77
2023/05/06 09:02:27;;;;;;;10.48;8.20;;;16.40;99.90;;;15.29;97.59;101015.00;5065747;28;20131;-81
2023/05/06 09:04:55;;;;;;;11.57;8.48;;;16.20;99.90;;;15.98;91.87;100995.03;5069742;28;20801;-80
2023/05/06 09:07:23;;;;;;;10.15;7.70;;;16.50;99.90;;;16.89;89.73;101011.81;5089035;28;20040;-76
2023/05/06 09:09:50;;;;;;;9.77;7.10;;;;;;;17.20;86.15;101009.56;5089328;28;20063;-77
2023/05/06 09:12:16;;;;;;;9.90;7.18;;;17.10;99.90;;;16.36;86.60;101015.59;5064608;28;20403;-76
2023/05/06 09:14:42;;;;;;;8.93;6.30;;;17.40;99.90;;;16.16;88.65;101020.72;5090351;28;20040;-78
2023/05/06 09:17:26;;;;;;;12.57;6.53;;;17.00;99.90;;;15.57;89.53;101011.50;5059569;28;20056;-79
2023/05/06 09:19:55;;;;;;;8.93;6.53;;;16.60;99.90;;;16.44;88.43;101003.31;5072380;28;20059;-80
2023/05/06 09:22:27;;;;;;;9.55;6.53;;;16.90;99.90;;;16.39;87.27;101017.84;5086150;28;20468;-83
2023/05/06 09:24:56;;;;;;;9.52;6.68;;;17.10;99.90;;;16.16;89.11;101026.22;5092345;28;20041;-79
2023/05/06 09:27:25;;;;;;;8.82;6.20;;;17.10;99.90;;;16.17;91.27;101022.38;5091292;28;20056;-82
2023/05/06 09:30:11;;;;;;;10.15;7.05;;;16.80;99.90;;;15.95;91.28;101018.41;5074039;28;20032;-81
2023/05/06 09:32:38;;;;;;;10.98;6.70;;;16.80;99.90;;;15.77;93.07;101026.78;5068997;28;20025;-80
2023/05/06 09:35:04;;;;;;;12.70;7.90;;;16.50;99.90;;;15.64;91.12;100995.69;5083309;28;20567;-80
2023/05/06 09:37:30;;;;;;;11.82;6.88;;;16.40;99.90;;;16.50;91.54;101007.88;5067541;28;20127;-78
2023/05/06 09:39:59;;;;;;;10.50;6.60;;;16.90;99.90;;;17.40;87.29;101020.06;5087161;28;20071;-78
2023/05/06 09:42:28;;;;;;;11.98;7.30;;;17.70;99.90;;;16.93;83.85;101010.22;5091235;28;20127;-79
2023/05/06 09:44:59;;;;;;;10.57;7.40;;;17.70;99.90;;;16.45;85.96;101007.78;5090716;28;20025;-83
2023/05/06 09:47:31;;;;;;;11.13;7.95;;;17.40;99.90;;;16.12;89.70;101030.53;5073493;28;20075;-80
2023/05/06 09:49:58;;;;;;;10.23;6.72;;;16.90;99.90;;;15.45;92.74;101014.25;5090007;28;20024;-81
2023/05/06 09:52:26;;;;;;;10.98;7.60;;;16.40;99.90;;;16.21;91.67;101029.91;5091949;28;20044;-80
2023/05/06 09:54:52;;;;;;;12.77;7.47;;;16.70;99.90;;;16.47;87.63;101024.88;5095235;28;20119;-78
2023/05/06 09:57:21;;;;;;;16.70;8.18;;;17.00;99.90;;;17.22;82.57;101019.25;5094681;28;20043;-78
2023/05/06 09:59:51;;;;;;;10.25;7.15;;;17.60;99.90;;;17.53;77.57;101007.84;5095094;28;20036;-78